createdAt,value
2019-05-15T00:00:48.155Z,82.71
2019-05-15T00:03:19.927Z,82.64
2019-05-15T00:05:51.229Z,82.28
2019-05-15T00:08:22.690Z,82.54
2019-05-15T00:10:54.039Z,82.44
2019-05-15T00:13:28.077Z,82.24
2019-05-15T00:15:59.087Z,82.16
2019-05-15T00:18:30.430Z,81.90
2019-05-15T00:21:02.636Z,81.64
2019-05-15T00:23:38.555Z,81.47
2019-05-15T00:26:09.562Z,81.62
2019-05-15T00:28:41.601Z,81.35
2019-05-15T00:31:12.958Z,81.43
2019-05-15T00:33:44.326Z,80.77
2019-05-15T00:36:19.209Z,80.85
2019-05-15T00:38:50.578Z,81.18
2019-05-15T00:41:21.771Z,81.75
2019-05-15T00:43:53.421Z,81.75
2019-05-15T00:46:24.661Z,82.62
2019-05-15T00:48:55.863Z,82.04
2019-05-15T00:51:28.477Z,82.21
2019-05-15T00:54:01.568Z,81.70
2019-05-15T00:56:32.957Z,82.33
2019-05-15T00:59:04.654Z,82.49
2019-05-15T01:01:38.105Z,82.13
2019-05-15T01:04:08.901Z,81.75
2019-05-15T01:06:40.268Z,81.48
2019-05-15T01:09:11.740Z,82.46
2019-05-15T01:11:42.979Z,82.86
2019-05-15T01:14:14.188Z,83.08
2019-05-15T01:16:45.952Z,82.82
2019-05-15T01:19:18.553Z,82.97
2019-05-15T01:21:50.052Z,82.64
2019-05-15T01:24:21.776Z,81.97
2019-05-15T01:26:53.028Z,82.32
2019-05-15T01:29:31.008Z,82.04
2019-05-15T01:31:59.224Z,83.31
2019-05-15T01:34:30.192Z,82.90
2019-05-15T01:37:01.568Z,81.65
2019-05-15T01:39:32.807Z,82.19
2019-05-15T01:42:04.099Z,81.86
2019-05-15T01:44:35.321Z,81.63
2019-05-15T01:47:08.428Z,81.57
2019-05-15T01:49:39.542Z,81.33
2019-05-15T01:52:10.863Z,81.72
2019-05-15T01:54:42.236Z,81.91
2019-05-15T01:57:13.559Z,82.33
2019-05-15T01:59:56.475Z,83.37
2019-05-15T02:02:19.129Z,83.51
2019-05-15T02:04:51.601Z,82.83
2019-05-15T02:07:22.979Z,82.67
2019-05-15T02:09:54.202Z,82.89
2019-05-15T02:12:25.759Z,82.80
2019-05-15T02:14:58.719Z,83.43
2019-05-15T02:17:30.098Z,83.98
2019-05-15T02:20:01.321Z,82.90
2019-05-15T02:22:32.755Z,83.04
2019-05-15T02:25:03.961Z,83.15
2019-05-15T02:27:35.369Z,83.07
2019-05-15T02:30:18.138Z,83.22
2019-05-15T02:32:40.379Z,83.58
2019-05-15T02:35:11.744Z,83.30
2019-05-15T02:37:43.229Z,81.75
2019-05-15T02:40:14.526Z,80.23
2019-05-15T02:42:49.019Z,79.99
2019-05-15T02:45:19.665Z,80.21
2019-05-15T02:47:51.210Z,81.27
2019-05-15T02:50:22.644Z,81.07
2019-05-15T02:52:53.876Z,81.12
2019-05-15T02:55:25.314Z,80.77
2019-05-15T02:57:59.024Z,80.42
2019-05-15T03:00:42.455Z,81.09
2019-05-15T03:03:03.634Z,80.98
2019-05-15T03:05:35.173Z,80.85
2019-05-15T03:08:09.282Z,80.77
2019-05-15T03:10:40.870Z,80.66
2019-05-15T03:13:12.538Z,80.85
2019-05-15T03:15:43.750Z,81.22
2019-05-15T03:18:15.097Z,81.85
2019-05-15T03:20:49.815Z,82.46
2019-05-15T03:23:20.042Z,82.39
2019-05-15T03:25:51.612Z,83.55
2019-05-15T03:28:23.146Z,81.87
2019-05-15T03:33:35.852Z,81.99
2019-05-15T03:36:02.794Z,82.24
2019-05-15T03:38:39.386Z,82.41
2019-05-15T03:41:10.580Z,84.50
2019-05-15T03:43:41.966Z,84.60
2019-05-15T03:46:13.189Z,83.02
2019-05-15T03:48:44.826Z,82.48
2019-05-15T03:51:19.632Z,83.07
2019-05-15T03:53:49.908Z,82.69
2019-05-15T03:56:21.376Z,82.96
2019-05-15T03:58:52.813Z,82.55
2019-05-15T04:01:34.213Z,82.86
2019-05-15T04:03:59.887Z,83.18
2019-05-15T04:06:30.144Z,82.99
2019-05-15T04:09:01.615Z,82.70
2019-05-15T04:11:32.891Z,82.72
2019-05-15T04:14:04.293Z,82.22
2019-05-15T04:16:35.493Z,82.83
2019-05-15T04:19:09.386Z,82.67
2019-05-15T04:21:44.670Z,83.50
2019-05-15T04:24:12.611Z,83.54
2019-05-15T04:26:44.632Z,82.76
2019-05-15T04:29:19.129Z,82.59
2019-05-15T04:31:59.826Z,82.48
2019-05-15T04:34:22.185Z,81.65
2019-05-15T04:36:53.494Z,81.97
2019-05-15T04:39:24.866Z,81.90
2019-05-15T04:41:58.885Z,81.37
2019-05-15T04:44:29.370Z,81.49
2019-05-15T04:47:00.631Z,81.50
2019-05-15T04:49:32.066Z,81.70
2019-05-15T04:52:03.985Z,82.12
2019-05-15T04:54:35.456Z,81.80
2019-05-15T04:57:09.293Z,81.57
2019-05-15T04:59:40.030Z,81.65
2019-05-15T05:02:17.533Z,81.04
2019-05-15T05:04:45.065Z,81.48
2019-05-15T05:07:18.794Z,81.58
2019-05-15T05:09:49.271Z,81.64
2019-05-15T05:12:20.823Z,81.92
2019-05-15T05:14:52.045Z,82.21
2019-05-15T05:17:23.883Z,81.98
2019-05-15T05:19:58.237Z,82.22
2019-05-15T05:22:28.900Z,81.52
2019-05-15T05:25:00.086Z,80.97
2019-05-15T05:27:31.299Z,80.69
2019-05-15T05:30:02.512Z,80.59
2019-05-15T05:32:35.263Z,80.77
2019-05-15T05:35:08.495Z,80.56
2019-05-15T05:37:40.505Z,80.46
2019-05-15T05:40:11.867Z,81.96
2019-05-15T05:42:43.248Z,81.75
2019-05-15T05:45:14.562Z,82.12
2019-05-15T05:47:50.532Z,82.01
2019-05-15T05:50:44.178Z,81.73
2019-05-15T05:53:30.288Z,81.87
2019-05-15T05:56:19.945Z,80.92
2019-05-15T05:59:09.629Z,81.93
2019-05-15T06:01:44.198Z,80.80
2019-05-15T06:04:18.406Z,81.40
2019-05-15T06:07:05.890Z,81.92
2019-05-15T06:09:22.379Z,81.52
2019-05-15T06:11:55.427Z,79.97
2019-05-15T06:14:28.847Z,79.88
2019-05-15T06:16:59.916Z,81.28
2019-05-15T06:19:31.513Z,81.59
2019-05-15T06:22:02.691Z,82.10
2019-05-15T06:24:34.763Z,82.66
2019-05-15T06:27:08.060Z,82.63
2019-05-15T06:29:38.911Z,82.05
2019-05-15T06:32:10.294Z,82.45
2019-05-15T06:34:42.144Z,82.09
2019-05-15T06:37:13.839Z,82.25
2019-05-15T06:39:45.387Z,81.49
2019-05-15T06:42:18.761Z,80.85
2019-05-15T06:44:49.564Z,80.62
2019-05-15T06:47:22.386Z,81.09
2019-05-15T06:49:53.751Z,79.98
2019-05-15T06:52:25.261Z,80.27
2019-05-15T06:54:56.503Z,81.15
2019-05-15T06:57:28.674Z,80.62
2019-05-15T07:00:01.568Z,81.06
2019-05-15T07:02:32.836Z,80.14
2019-05-15T07:05:04.315Z,80.05
2019-05-15T07:07:37.944Z,79.79
2019-05-15T07:10:09.301Z,79.87
2019-05-15T07:12:40.697Z,79.23
2019-05-15T07:15:12.246Z,79.31
2019-05-15T07:17:44.835Z,80.21
2019-05-15T07:20:18.619Z,79.40
2019-05-15T07:22:50.121Z,78.15
2019-05-15T07:25:21.445Z,78.81
2019-05-15T07:27:52.803Z,77.87
2019-05-15T07:30:25.951Z,78.18
2019-05-15T07:32:58.344Z,79.03
2019-05-15T07:35:30.258Z,78.32
2019-05-15T07:38:01.560Z,77.51
2019-05-15T07:40:32.821Z,76.47
2019-05-15T07:43:04.612Z,76.57
2019-05-15T07:45:42.582Z,77.54
2019-05-15T07:48:09.384Z,77.43
2019-05-15T07:50:40.918Z,77.49
2019-05-15T07:53:12.205Z,77.17
2019-05-15T07:55:43.436Z,78.84
2019-05-15T07:58:14.682Z,78.36
2019-05-15T08:00:49.068Z,78.76
2019-05-15T08:03:19.719Z,78.77
2019-05-15T08:05:59.117Z,78.75
2019-05-15T08:08:28.853Z,77.82
2019-05-15T08:10:59.019Z,78.05
2019-05-15T08:13:30.465Z,77.41
2019-05-15T08:16:01.674Z,78.14
2019-05-15T08:18:35.066Z,78.29
2019-05-15T08:21:08.810Z,77.65
2019-05-15T08:23:39.564Z,77.50
2019-05-15T08:26:11.014Z,78.19
2019-05-15T08:28:42.242Z,78.22
2019-05-15T08:31:13.493Z,78.29
2019-05-15T08:33:44.982Z,76.61
2019-05-15T08:36:18.290Z,76.78
2019-05-15T08:38:49.282Z,76.28
2019-05-15T08:41:20.681Z,77.85
2019-05-15T08:43:57.960Z,77.89
2019-05-15T08:46:29.484Z,77.92
2019-05-15T08:49:00.826Z,77.65
2019-05-15T08:51:33.694Z,77.74
2019-05-15T08:54:05.175Z,76.22
2019-05-15T08:56:39.635Z,76.71
2019-05-15T08:59:18.780Z,77.28
2019-05-15T09:01:50.138Z,76.87
2019-05-15T09:04:30.833Z,77.53
2019-05-15T09:06:54.392Z,78.32
2019-05-15T09:09:25.642Z,77.18
2019-05-15T09:11:58.506Z,77.81
2019-05-15T09:14:29.881Z,78.67
2019-05-15T09:17:01.386Z,78.55
2019-05-15T09:19:32.632Z,78.32
2019-05-15T09:22:10.289Z,78.54
2019-05-15T09:24:43.704Z,78.82
2019-05-15T09:27:14.917Z,78.94
2019-05-15T09:29:48.347Z,79.84
2019-05-15T09:32:28.500Z,78.54
2019-05-15T09:34:59.921Z,78.75
2019-05-15T09:37:33.630Z,79.51
2019-05-15T09:40:04.667Z,78.89
2019-05-15T09:42:38.603Z,78.40
2019-05-15T09:45:10.159Z,78.52
2019-05-15T09:47:42.367Z,78.01
2019-05-15T09:50:14.556Z,78.91
2019-05-15T09:52:45.756Z,77.39
2019-05-15T09:55:18.035Z,78.46
2019-05-15T09:57:51.121Z,78.97
2019-05-15T10:00:22.932Z,78.43
2019-05-15T10:02:56.149Z,77.65
2019-05-15T10:05:28.081Z,76.93
2019-05-15T10:08:01.082Z,77.53
2019-05-15T10:10:32.432Z,77.81
2019-05-15T10:13:03.619Z,78.72
2019-05-15T10:15:35.689Z,79.48
2019-05-15T10:18:09.944Z,79.63
2019-05-15T10:20:41.623Z,80.76
2019-05-15T10:23:14.719Z,80.33
2019-05-15T10:25:48.556Z,80.16
2019-05-15T10:28:19.686Z,79.93
2019-05-15T10:30:52.493Z,81.25
2019-05-15T10:33:24.327Z,80.29
2019-05-15T10:35:55.542Z,80.24
2019-05-15T10:38:28.500Z,78.89
2019-05-15T10:41:08.854Z,78.68
2019-05-15T10:43:35.506Z,79.50
2019-05-15T10:46:12.463Z,79.90
2019-05-15T10:48:39.967Z,79.84
2019-05-15T10:51:11.594Z,80.29
2019-05-15T10:53:43.128Z,80.05
2019-05-15T10:56:14.352Z,79.88
2019-05-15T10:58:50.186Z,79.57
2019-05-15T11:01:19.365Z,79.55
2019-05-15T11:03:50.814Z,79.66
2019-05-15T11:06:22.155Z,79.65
2019-05-15T11:08:54.965Z,79.96
2019-05-15T11:11:26.150Z,79.16
2019-05-15T11:14:00.366Z,77.41
2019-05-15T11:16:30.614Z,78.04
2019-05-15T11:19:01.843Z,77.88
2019-05-15T11:21:34.082Z,77.53
2019-05-15T11:24:05.404Z,78.07
2019-05-15T11:26:39.066Z,78.85
2019-05-15T11:29:10.476Z,78.80
2019-05-15T11:31:41.723Z,77.37
2019-05-15T11:34:12.904Z,78.14
2019-05-15T11:36:44.346Z,77.69
2019-05-15T11:39:18.256Z,78.39
2019-05-15T11:41:49.638Z,78.88
2019-05-15T11:44:21.143Z,77.84
2019-05-15T11:46:52.520Z,77.37
2019-05-15T11:49:23.728Z,78.07
2019-05-15T11:52:00.410Z,76.62
2019-05-15T11:54:29.596Z,77.43
2019-05-15T11:57:00.795Z,78.29
2019-05-15T11:59:32.494Z,78.04
2019-05-15T12:02:04.468Z,77.54
2019-05-15T12:04:38.181Z,77.38
2019-05-15T12:07:09.072Z,77.79
2019-05-15T12:09:40.534Z,78.27
2019-05-15T12:12:11.723Z,77.17
2019-05-15T12:14:43.191Z,76.31
2019-05-15T12:17:15.563Z,77.50
2019-05-15T12:19:54.972Z,77.71
2019-05-15T12:22:20.327Z,77.03
2019-05-15T12:25:00.713Z,76.84
2019-05-15T12:27:30.699Z,76.67
2019-05-15T12:30:02.084Z,77.48
2019-05-15T12:32:36.753Z,75.19
2019-05-15T12:35:06.497Z,76.32
2019-05-15T13:00:38.289Z,76.21
2019-05-15T13:03:09.958Z,77.62
2019-05-15T13:05:41.314Z,77.86
2019-05-15T13:08:14.184Z,77.63
2019-05-15T13:10:45.433Z,77.85
2019-05-15T13:13:18.668Z,77.57
2019-05-15T13:15:49.682Z,78.36
2019-05-15T13:18:21.089Z,76.96
2019-05-15T13:20:52.310Z,78.93
2019-05-15T13:23:23.770Z,78.60
2019-05-15T13:25:55.024Z,78.18
2019-05-15T13:28:28.990Z,78.78
2019-05-15T13:31:02.581Z,79.37
2019-05-15T13:33:38.624Z,78.09
2019-05-15T13:36:09.525Z,78.92
2019-05-15T13:38:40.991Z,78.11
2019-05-15T13:41:12.604Z,79.03
2019-05-15T13:43:44.117Z,79.61
2019-05-15T13:46:15.448Z,78.43
2019-05-15T13:48:49.011Z,79.43
2019-05-15T13:51:20.011Z,78.42
2019-05-15T13:53:53.648Z,80.44
2019-05-15T13:56:24.464Z,80.68
2019-05-15T13:58:55.702Z,80.40
2019-05-15T14:01:28.686Z,81.84
2019-05-15T14:04:00.208Z,82.37
2019-05-15T14:06:31.815Z,81.74
2019-05-15T14:09:08.573Z,81.07
2019-05-15T14:11:39.244Z,80.80
2019-05-15T14:14:10.515Z,81.92
2019-05-15T14:16:41.880Z,82.68
2019-05-15T14:19:13.069Z,83.15
2019-05-15T14:21:44.324Z,83.79
2019-05-15T14:24:17.900Z,83.54
2019-05-15T14:26:48.770Z,83.32
2019-05-15T14:29:20.043Z,83.76
2019-05-15T14:31:51.281Z,84.77
2019-05-15T14:34:22.890Z,85.19
2019-05-15T14:36:54.217Z,85.79
2019-05-15T14:39:25.805Z,86.34
2019-05-15T14:41:58.371Z,85.15
2019-05-15T14:44:31.771Z,85.53
2019-05-15T14:47:03.252Z,85.51
2019-05-15T14:49:35.764Z,86.02
2019-05-15T14:52:09.284Z,84.89
2019-05-15T14:54:40.597Z,83.95
2019-05-15T14:57:11.867Z,84.03
2019-05-15T14:59:43.234Z,84.09
2019-05-15T15:02:14.763Z,82.85
2019-05-15T15:04:48.569Z,82.66
2019-05-15T15:07:19.045Z,82.50
2019-05-15T15:09:55.143Z,83.08
2019-05-15T15:12:39.737Z,84.02
2019-05-15T15:15:20.360Z,84.57
2019-05-15T15:17:51.583Z,85.27
2019-05-15T15:20:30.776Z,85.02
2019-05-15T15:23:12.402Z,84.98
2019-05-15T15:25:49.179Z,85.28
2019-05-15T15:28:22.143Z,85.05
2019-05-15T15:30:58.319Z,84.74
2019-05-15T15:33:39.168Z,84.18
2019-05-15T15:36:17.644Z,83.91
2019-05-15T15:38:55.127Z,84.63
2019-05-15T15:41:28.605Z,83.72
2019-05-15T15:44:02.997Z,84.62
2019-05-15T15:46:39.827Z,84.87
2019-05-15T15:52:43.024Z,84.68
2019-05-15T15:55:14.257Z,83.82
2019-05-15T15:57:45.732Z,84.32
2019-05-15T16:00:18.360Z,85.34
2019-05-15T16:02:50.651Z,85.70
2019-05-15T16:05:23.478Z,85.34
2019-05-15T16:07:55.373Z,84.52
2019-05-15T16:10:28.267Z,83.84
2019-05-15T16:13:00.318Z,83.99
2019-05-15T16:15:32.341Z,84.68
2019-05-15T16:18:05.476Z,84.78
2019-05-15T16:20:39.286Z,84.02
2019-05-15T16:23:09.850Z,84.51
2019-05-15T16:25:41.759Z,84.07
2019-05-15T16:28:12.930Z,83.42
2019-05-15T16:30:51.127Z,85.04
2019-05-15T16:33:18.449Z,85.07
2019-05-15T16:35:50.169Z,84.35
2019-05-15T16:38:21.856Z,84.88
2019-05-15T16:40:53.096Z,84.05
2019-05-15T16:43:24.493Z,84.72
2019-05-15T16:45:58.636Z,84.65
2019-05-15T16:48:30.291Z,83.29
2019-05-15T16:51:04.067Z,83.72
2019-05-15T16:53:38.310Z,83.80
2019-05-15T16:56:09.603Z,83.67
2019-05-15T16:58:41.314Z,82.71
2019-05-15T17:01:18.469Z,84.14
2019-05-15T17:03:49.167Z,83.32
2019-05-15T17:06:21.530Z,84.23
2019-05-15T17:08:53.168Z,84.43
2019-05-15T17:11:24.402Z,84.01
2019-05-15T17:13:55.789Z,83.53
2019-05-15T17:16:27.019Z,84.67
2019-05-15T17:18:59.201Z,84.58
2019-05-15T17:21:30.841Z,85.73
2019-05-15T17:24:02.059Z,85.25
2019-05-15T17:26:33.848Z,85.55
2019-05-15T17:29:05.202Z,85.87
2019-05-15T17:31:37.960Z,84.12
2019-05-15T17:34:09.403Z,85.25
2019-05-15T17:36:48.783Z,85.34
2019-05-15T17:39:36.746Z,85.34
2019-05-15T17:42:09.621Z,85.97
2019-05-15T17:44:45.216Z,85.56
2019-05-15T17:47:22.443Z,86.40
2019-05-15T17:50:00.114Z,86.15
2019-05-15T17:52:41.317Z,86.12
2019-05-15T17:55:18.210Z,85.86
2019-05-15T17:57:57.135Z,85.48
2019-05-15T18:00:23.639Z,86.20
2019-05-15T18:02:55.283Z,85.94
2019-05-15T18:05:28.316Z,86.27
2019-05-15T18:08:00.364Z,85.17
2019-05-15T18:10:33.108Z,85.56
2019-05-15T18:13:04.995Z,85.25
2019-05-15T18:15:38.595Z,85.23
2019-05-15T18:18:09.976Z,85.08
2019-05-15T18:20:41.351Z,85.65
2019-05-15T18:23:12.811Z,85.50
2019-05-15T18:25:44.607Z,85.72
2019-05-15T18:28:18.671Z,85.86
2019-05-15T18:30:49.321Z,85.89
2019-05-15T18:33:20.692Z,85.90
2019-05-15T18:35:52.140Z,86.28
2019-05-15T18:38:23.347Z,85.01
2019-05-15T18:40:55.307Z,84.98
2019-05-15T18:43:28.387Z,86.12
2019-05-15T18:45:59.902Z,85.71
2019-05-15T18:48:31.688Z,85.75
2019-05-15T18:51:03.378Z,86.43
2019-05-15T18:53:38.803Z,87.41
2019-05-15T18:56:12.510Z,86.03
2019-05-15T18:58:44.113Z,86.07
2019-05-15T19:01:17.678Z,86.57
2019-05-15T19:03:50.300Z,87.26
2019-05-15T19:06:22.070Z,87.46
2019-05-15T19:08:53.899Z,87.40
2019-05-15T19:11:25.207Z,87.69
2019-05-15T19:13:58.919Z,87.49
2019-05-15T19:16:31.734Z,87.56
2019-05-15T19:19:03.242Z,87.60
2019-05-15T19:21:38.102Z,86.68
2019-05-15T19:24:09.873Z,86.72
2019-05-15T19:26:41.906Z,87.14
2019-05-15T19:29:13.506Z,86.00
2019-05-15T19:31:45.848Z,86.51
2019-05-15T19:34:18.970Z,86.96
2019-05-15T19:36:50.094Z,86.94
2019-05-15T19:39:21.907Z,86.83
2019-05-15T19:41:53.159Z,86.74
2019-05-15T19:44:24.384Z,86.93
2019-05-15T19:46:58.458Z,86.57
2019-05-15T19:49:29.621Z,86.68
2019-05-15T19:52:01.304Z,86.35
2019-05-15T19:54:32.681Z,85.51
2019-05-15T19:57:04.642Z,85.85
2019-05-15T19:59:54.264Z,86.68
2019-05-15T20:02:25.458Z,86.49
2019-05-15T20:05:14.802Z,86.21
2019-05-15T20:08:03.958Z,86.40
2019-05-15T20:10:35.176Z,86.15
2019-05-15T20:13:06.967Z,86.51
2019-05-15T20:15:38.579Z,86.27
2019-05-15T20:18:11.425Z,86.58
2019-05-15T20:20:42.717Z,86.75
2019-05-15T20:23:14.162Z,87.75
2019-05-15T20:25:46.137Z,86.70
2019-05-15T20:28:19.142Z,87.11
2019-05-15T20:30:50.351Z,87.41
2019-05-15T20:33:22.700Z,87.36
2019-05-15T20:35:53.919Z,87.39
2019-05-15T20:38:25.099Z,87.31
2019-05-15T20:40:59.476Z,86.68
2019-05-15T20:43:29.651Z,86.80
2019-05-15T20:46:03.088Z,87.70
2019-05-15T20:48:38.262Z,87.85
2019-05-15T20:51:09.885Z,87.63
2019-05-15T20:53:41.369Z,87.10
2019-05-15T20:56:12.700Z,86.94
2019-05-15T20:58:44.287Z,86.95
2019-05-15T21:01:18.076Z,86.92
2019-05-15T21:03:51.046Z,87.04
2019-05-15T21:06:21.802Z,86.42
2019-05-15T21:08:53.008Z,85.72
2019-05-15T21:11:24.222Z,86.25
2019-05-15T21:13:55.426Z,87.20
2019-05-15T21:16:28.114Z,87.29
2019-05-15T21:19:00.367Z,86.51
2019-05-15T21:21:31.873Z,86.18
2019-05-15T21:24:03.313Z,86.10
2019-05-15T21:26:35.020Z,86.15
2019-05-15T21:29:07.862Z,86.50
2019-05-15T21:31:40.034Z,86.14
2019-05-15T21:34:11.443Z,86.77
2019-05-15T21:36:42.751Z,86.80
2019-05-15T21:39:15.566Z,87.69
2019-05-15T21:41:48.838Z,88.42
2019-05-15T21:44:19.768Z,87.27
2019-05-15T21:46:52.050Z,87.18
2019-05-15T21:49:23.256Z,87.27
2019-05-15T21:51:54.475Z,87.63
2019-05-15T21:54:28.041Z,87.80
2019-05-15T21:57:12.766Z,87.50
2019-05-15T21:59:32.355Z,87.35
2019-05-15T22:02:05.550Z,87.26
2019-05-15T22:04:49.095Z,87.95
2019-05-15T22:07:10.138Z,87.93
2019-05-15T22:09:41.619Z,87.97
2019-05-15T22:12:28.551Z,88.29
2019-05-15T22:15:04.983Z,88.39
2019-05-15T22:17:38.622Z,86.61
2019-05-15T22:20:10.403Z,86.97
2019-05-15T22:22:50.489Z,87.11
2019-05-15T22:25:38.521Z,88.12
2019-05-15T22:28:10.019Z,88.45
2019-05-15T22:30:41.987Z,88.42
2019-05-15T22:33:13.954Z,89.04
2019-05-15T22:35:45.172Z,88.15
2019-05-15T22:38:18.104Z,88.49
2019-05-15T22:40:49.687Z,88.15
2019-05-15T22:43:22.050Z,88.34
2019-05-15T22:45:53.920Z,88.48
2019-05-15T22:48:25.125Z,88.12
2019-05-15T22:50:58.341Z,88.39
2019-05-15T22:53:29.608Z,88.98
2019-05-15T22:56:01.006Z,88.43
2019-05-15T22:58:34.879Z,88.11
2019-05-15T23:01:08.870Z,88.70
2019-05-15T23:03:39.685Z,88.92
2019-05-15T23:06:11.125Z,88.79
2019-05-15T23:08:42.375Z,88.68
2019-05-15T23:11:13.635Z,88.95
2019-05-15T23:13:44.839Z,88.86
2019-05-15T23:16:18.248Z,88.52
2019-05-15T23:18:49.655Z,89.37
2019-05-15T23:21:21.354Z,89.48
2019-05-15T23:23:52.985Z,89.44
2019-05-15T23:26:24.239Z,88.90
2019-05-15T23:28:55.894Z,89.39
2019-05-15T23:31:28.096Z,89.52
2019-05-15T23:33:59.503Z,89.71
2019-05-15T23:36:30.974Z,89.75
2019-05-15T23:39:02.233Z,89.56
2019-05-15T23:41:33.654Z,89.24
2019-05-15T23:44:04.911Z,89.38
2019-05-15T23:46:38.090Z,89.35
2019-05-15T23:49:09.095Z,89.62
2019-05-15T23:51:40.522Z,89.08
2019-05-15T23:54:11.721Z,88.60
2019-05-15T23:56:43.065Z,88.76
2019-05-15T23:59:14.622Z,89.06
